W. J. Authement — WDE7846 — position and weather

sailwx.info

Track history (hours):
 
Tides and Currents Weather Stations Pressure Air Temp Water Temp Dewpoint Dewpoint Depression Visibility Wind Speed Wind Dir Waves Ship Positions

W. J. Authement

Owner: LeBeouf Bros. Towing, LLC, Houma, LA. More information available from US FCC via Universal Licensing System and Coast Guard Vessel Documentation Center.

Last reported at 2018-Feb-22 04:26 UTC. Time now 2018-Feb-22 04:39 UTC.
Position N 30°04' W 093°25'.

Length 24 m; draft 3 m.

Type: Tug. MMSI: 367398380.

Date/timePositionNaut miles runAvg speedWind from/ knotsBaromVisibWave heightAir tempDewpointWater temp
2018-Feb-22 04:26N 30°04' W 093°25'3 4.9
2018-Feb-22 03:54N 30°04' W 093°28'11 5.0
2018-Feb-22 01:44N 30°04' W 093°40'2 5.7
2018-Feb-22 01:23N 30°03' W 093°42'2 5.3
2018-Feb-22 01:00N 30°02' W 093°44'3 5.7
2018-Feb-22 00:29N 29°60' W 093°46'3 5.9
2018-Feb-22 00:00N 29°59' W 093°50'3 5.4
2018-Feb-21 23:30N 29°57' W 093°52'3 5.6
2018-Feb-21 23:00N 29°55' W 093°54'2 4.9
2018-Feb-21 22:30N 29°53' W 093°55'3 5.1
2018-Feb-21 22:00N 29°51' W 093°57'2 4.1
2018-Feb-21 21:30N 29°49' W 093°59'0 0.1
2018-Feb-21 21:00N 29°49' W 093°59'0 0.0
2018-Feb-21 20:25N 29°49' W 093°59'0 0.4
2018-Feb-21 20:00N 29°49' W 093°59'1 3.0
2018-Feb-21 19:30N 29°48' W 094°00'3 5.0
2018-Feb-21 19:00N 29°46' W 094°02'3 5.4
2018-Feb-21 18:30N 29°45' W 094°05'3 5.2
2018-Feb-21 18:00N 29°43' W 094°07'3 5.2
2018-Feb-21 17:30N 29°41' W 094°09'2 4.1
2018-Feb-21 16:57N 29°41' W 094°12'1 1.4
2018-Feb-21 16:28N 29°41' W 094°13'0 0.4
2018-Feb-21 16:00N 29°40' W 094°13'2 3.3
2018-Feb-21 15:30N 29°40' W 094°15'2 4.2
2018-Feb-21 14:59N 29°39' W 094°17'2 4.2
2018-Feb-21 14:24N 29°38' W 094°19'105 2.4
2018-Feb-19 18:43N 28°40' W 096°00'1 2.6
2018-Feb-19 18:23N 28°40' W 096°01'25 4.3
2018-Feb-19 12:33N 28°26' W 096°25'2 4.0
2018-Feb-19 12:10N 28°26' W 096°27'24 2.9
2018-Feb-19 03:35N 28°12' W 096°50'1 3.3
2018-Feb-19 03:26N 28°12' W 096°50'2 3.6
2018-Feb-19 02:54N 28°10' W 096°52'1 3.3
2018-Feb-19 02:30N 28°10' W 096°53'2 3.4
2018-Feb-19 02:00N 28°08' W 096°54'2 3.6
2018-Feb-19 01:30N 28°07' W 096°56'3 5.6
2018-Feb-19 00:59N 28°05' W 096°58'3 5.9
2018-Feb-19 00:30N 28°02' W 096°60'29 0.8
2018-Feb-17 14:19N 27°49' W 097°28'2 0.1
2018-Feb-16 03:02N 27°49' W 097°26'0 0.0
2018-Feb-16 02:49N 27°49' W 097°26'0 0.0
2018-Feb-16 00:40N 27°49' W 097°26'0 0.0
2018-Feb-15 23:36N 27°49' W 097°26'0 0.0
2018-Feb-15 23:27N 27°49' W 097°26'21 3.0
2018-Feb-15 16:35N 27°52' W 097°03'0 2.2
2018-Feb-15 16:29N 27°52' W 097°03'0 0.0
2018-Feb-15 15:52N 27°52' W 097°03'0 0.0
2018-Feb-15 15:26N 27°52' W 097°03'0 0.0
2018-Feb-15 14:57N 27°52' W 097°03'0 0.0
2018-Feb-15 14:30N 27°52' W 097°03'0 0.0
2018-Feb-15 13:57N 27°52' W 097°03'0 0.0
2018-Feb-15 12:56N 27°52' W 097°03'0 0.0
2018-Feb-15 07:09N 27°52' W 097°03'0 0.0
2018-Feb-15 06:05N 27°52' W 097°03'0 0.0
2018-Feb-15 05:39N 27°52' W 097°03'0 0.0
2018-Feb-15 05:30N 27°52' W 097°03'0 0.0
2018-Feb-15 04:57N 27°52' W 097°03'0 0.0
2018-Feb-15 04:29N 27°52' W 097°03'0 0.0
2018-Feb-15 03:57N 27°52' W 097°03'0 0.0
2018-Feb-15 03:30N 27°52' W 097°03'0 0.0
2018-Feb-15 02:57N 27°52' W 097°03'0 0.0
2018-Feb-15 02:29N 27°52' W 097°03'0 0.0
2018-Feb-15 02:00N 27°52' W 097°03'0 0.0
2018-Feb-15 01:29N 27°52' W 097°03'0 0.0
2018-Feb-15 01:00N 27°52' W 097°03'0 0.0
2018-Feb-15 00:29N 27°52' W 097°03'0 0.0
2018-Feb-14 23:59N 27°52' W 097°03'0 0.0
2018-Feb-14 23:30N 27°52' W 097°03'0 0.0
2018-Feb-14 22:59N 27°52' W 097°03'0 0.0
2018-Feb-14 22:30N 27°52' W 097°03'1 1.8
2018-Feb-14 21:59N 27°51' W 097°03'1 1.1
2018-Feb-14 21:30N 27°51' W 097°04'0 0.0
2018-Feb-14 20:59N 27°51' W 097°04'0 0.0
2018-Feb-14 20:30N 27°51' W 097°04'0 0.1
2018-Feb-14 19:59N 27°51' W 097°04'1 2.8
2018-Feb-14 19:28N 27°52' W 097°03'0 0.0
2018-Feb-14 18:59N 27°52' W 097°03'0 0.0
2018-Feb-14 18:27N 27°52' W 097°03'0 0.0
2018-Feb-14 17:58N 27°52' W 097°03'0 0.0
2018-Feb-14 17:30N 27°52' W 097°03'0 0.0
2018-Feb-14 16:59N 27°52' W 097°03'0 0.0
2018-Feb-14 16:30N 27°52' W 097°03'0 0.0
2018-Feb-14 15:59N 27°52' W 097°03'0 0.0
2018-Feb-14 15:28N 27°52' W 097°03'0 0.0
2018-Feb-14 14:59N 27°52' W 097°03'0 0.0
2018-Feb-14 14:29N 27°52' W 097°03'0 0.0
2018-Feb-14 14:00N 27°52' W 097°03'0 0.9
2018-Feb-14 13:30N 27°53' W 097°03'2 3.2
2018-Feb-14 12:58N 27°51' W 097°04'1 2.8
2018-Feb-14 12:29N 27°52' W 097°03'0 0.0
2018-Feb-14 12:00N 27°52' W 097°03'0 0.0
2018-Feb-14 11:30N 27°52' W 097°03'0 0.0
2018-Feb-14 10:59N 27°52' W 097°03'0 0.0
2018-Feb-14 10:27N 27°52' W 097°03'0 0.0
2018-Feb-14 09:58N 27°52' W 097°03'0 0.0
2018-Feb-14 09:27N 27°52' W 097°03'0 0.0
2018-Feb-14 08:59N 27°52' W 097°03'0 0.0
2018-Feb-14 08:27N 27°52' W 097°03'0 0.0
2018-Feb-14 08:00N 27°52' W 097°03'0 0.0
2018-Feb-14 07:29N 27°52' W 097°03'0 0.0
2018-Feb-14 06:59N 27°52' W 097°03'0 0.0
2018-Feb-14 06:30N 27°52' W 097°03'0 0.0
2018-Feb-14 05:59N 27°52' W 097°03'0 0.0
2018-Feb-14 05:29N 27°52' W 097°03'0 0.0
2018-Feb-14 04:59N 27°52' W 097°03'0 0.0
2018-Feb-14 04:30N 27°52' W 097°03'0 0.0
2018-Feb-14 03:59N 27°52' W 097°03'0 0.0
2018-Feb-14 03:29N 27°52' W 097°03'0 0.0
2018-Feb-14 02:58N 27°52' W 097°03'0 0.0
2018-Feb-14 02:29N 27°52' W 097°03'0 0.0
2018-Feb-14 01:57N 27°52' W 097°03'0 0.0
2018-Feb-14 01:29N 27°52' W 097°03'0 0.0
2018-Feb-14 00:57N 27°52' W 097°03'0 0.0
2018-Feb-14 00:30N 27°52' W 097°03'0 0.0
2018-Feb-14 00:00N 27°52' W 097°03'0 0.0
2018-Feb-13 23:28N 27°52' W 097°03'0 0.0
2018-Feb-13 22:59N 27°52' W 097°03'0 0.0
2018-Feb-13 22:29N 27°52' W 097°03'0 0.0
2018-Feb-13 21:59N 27°52' W 097°03'0 0.0
2018-Feb-13 21:29N 27°52' W 097°03'0 0.0
2018-Feb-13 21:00N 27°52' W 097°03'0 0.0
2018-Feb-13 20:30N 27°52' W 097°03'0 0.0
2018-Feb-13 20:00N 27°52' W 097°03'0 0.0
2018-Feb-13 19:29N 27°52' W 097°03'0 0.0
2018-Feb-13 18:59N 27°52' W 097°03'0 0.0
2018-Feb-13 18:29N 27°52' W 097°03'0 0.0
2018-Feb-13 17:59N 27°52' W 097°03'0 0.0
2018-Feb-13 17:29N 27°52' W 097°03'0 0.0
2018-Feb-13 17:00N 27°52' W 097°03'0 0.0
2018-Feb-13 16:30N 27°52' W 097°03'0 0.0
2018-Feb-13 15:59N 27°52' W 097°03'0 0.0
2018-Feb-13 15:28N 27°52' W 097°03'0 0.0
2018-Feb-13 14:59N 27°52' W 097°03'0 0.0
2018-Feb-13 14:29N 27°52' W 097°03'0 0.0
2018-Feb-13 13:59N 27°52' W 097°03'0 0.0
2018-Feb-13 13:30N 27°52' W 097°03'0 0.0
2018-Feb-13 13:00N 27°52' W 097°03'0 0.0
2018-Feb-13 12:29N 27°52' W 097°03'0 0.0
2018-Feb-13 11:59N 27°52' W 097°03'0 0.0
2018-Feb-13 11:26N 27°52' W 097°03'0 0.0
2018-Feb-13 11:00N 27°52' W 097°03'0 0.0
2018-Feb-13 10:29N 27°52' W 097°03'0 0.0
2018-Feb-13 09:59N 27°52' W 097°03'0 0.0
2018-Feb-13 09:30N 27°52' W 097°03'0 0.0
2018-Feb-13 09:00N 27°52' W 097°03'0 0.0
2018-Feb-13 08:29N 27°52' W 097°03'0 0.0
2018-Feb-13 07:59N 27°52' W 097°03'0 0.0
2018-Feb-13 07:30N 27°52' W 097°03'0 0.0
2018-Feb-13 07:00N 27°52' W 097°03'0 0.0
2018-Feb-13 06:29N 27°52' W 097°03'0 0.0
2018-Feb-13 05:59N 27°52' W 097°03'0 0.0
2018-Feb-13 05:30N 27°52' W 097°03'0 0.0
2018-Feb-13 04:59N 27°52' W 097°03'0 0.0
2018-Feb-13 04:29N 27°52' W 097°03'0 0.0
2018-Feb-13 04:00N 27°52' W 097°03'0 0.0
2018-Feb-13 03:30N 27°52' W 097°03'0 0.0
2018-Feb-13 02:59N 27°52' W 097°03'0 0.0
2018-Feb-13 02:29N 27°52' W 097°03'0 0.0
2018-Feb-13 01:58N 27°52' W 097°03'0 0.0
2018-Feb-13 01:30N 27°52' W 097°03'0 0.0
2018-Feb-13 00:59N 27°52' W 097°03'0 0.0
2018-Feb-13 00:30N 27°52' W 097°03'0 0.0
2018-Feb-12 23:57N 27°52' W 097°03'0 0.0
2018-Feb-12 23:26N 27°52' W 097°03'0 0.0
2018-Feb-12 22:58N 27°52' W 097°03'0 0.0
2018-Feb-12 22:29N 27°52' W 097°03'0 0.0
2018-Feb-12 21:59N 27°52' W 097°03'0 0.0
2018-Feb-12 21:30N 27°52' W 097°03'0 0.0
2018-Feb-12 21:00N 27°52' W 097°03'0 0.0
2018-Feb-12 20:27N 27°52' W 097°03'0 0.0
2018-Feb-12 19:56N 27°52' W 097°03'0 0.0
2018-Feb-12 19:30N 27°52' W 097°03'0 0.0
2018-Feb-12 18:59N 27°52' W 097°03'0 0.0
2018-Feb-12 18:27N 27°52' W 097°03'0 0.0
2018-Feb-12 18:00N 27°52' W 097°03'0 0.0
2018-Feb-12 17:30N 27°52' W 097°03'0 0.0
2018-Feb-12 16:59N 27°52' W 097°03'0 0.0
2018-Feb-12 16:29N 27°52' W 097°03'0 0.0
2018-Feb-12 15:59N 27°52' W 097°03'0 0.0
2018-Feb-12 15:16N 27°52' W 097°03'0 0.0
2018-Feb-12 15:00N 27°52' W 097°03'0 0.0
2018-Feb-12 14:30N 27°52' W 097°03'  
Track history (hours):
 
Tides and Currents Weather Stations Pressure Air Temp Water Temp Dewpoint Dewpoint Depression Visibility Wind Speed Wind Dir Waves Ship Positions

W. J. Authement

Owner: LeBeouf Bros. Towing, LLC, Houma, LA. More information available from US FCC via Universal Licensing System and Coast Guard Vessel Documentation Center.

Last reported at 2018-Feb-22 04:26 UTC. Time now 2018-Feb-22 04:39 UTC.
Position N 30°04' W 093°25'.

Length 24 m; draft 3 m.

Type: Tug. MMSI: 367398380.

Date/timePositionNaut miles runAvg speedWind from/ knotsBaromVisibWave heightAir tempDewpointWater temp
2018-Feb-22 04:26N 30°04' W 093°25'3 4.9
2018-Feb-22 03:54N 30°04' W 093°28'11 5.0
2018-Feb-22 01:44N 30°04' W 093°40'2 5.7
2018-Feb-22 01:23N 30°03' W 093°42'2 5.3
2018-Feb-22 01:00N 30°02' W 093°44'3 5.7
2018-Feb-22 00:29N 29°60' W 093°46'3 5.9
2018-Feb-22 00:00N 29°59' W 093°50'3 5.4
2018-Feb-21 23:30N 29°57' W 093°52'3 5.6
2018-Feb-21 23:00N 29°55' W 093°54'2 4.9
2018-Feb-21 22:30N 29°53' W 093°55'3 5.1
2018-Feb-21 22:00N 29°51' W 093°57'2 4.1
2018-Feb-21 21:30N 29°49' W 093°59'0 0.1
2018-Feb-21 21:00N 29°49' W 093°59'0 0.0
2018-Feb-21 20:25N 29°49' W 093°59'0 0.4
2018-Feb-21 20:00N 29°49' W 093°59'1 3.0
2018-Feb-21 19:30N 29°48' W 094°00'3 5.0
2018-Feb-21 19:00N 29°46' W 094°02'3 5.4
2018-Feb-21 18:30N 29°45' W 094°05'3 5.2
2018-Feb-21 18:00N 29°43' W 094°07'3 5.2
2018-Feb-21 17:30N 29°41' W 094°09'2 4.1
2018-Feb-21 16:57N 29°41' W 094°12'1 1.4
2018-Feb-21 16:28N 29°41' W 094°13'0 0.4
2018-Feb-21 16:00N 29°40' W 094°13'2 3.3
2018-Feb-21 15:30N 29°40' W 094°15'2 4.2
2018-Feb-21 14:59N 29°39' W 094°17'2 4.2
2018-Feb-21 14:24N 29°38' W 094°19'105 2.4
2018-Feb-19 18:43N 28°40' W 096°00'1 2.6
2018-Feb-19 18:23N 28°40' W 096°01'25 4.3
2018-Feb-19 12:33N 28°26' W 096°25'2 4.0
2018-Feb-19 12:10N 28°26' W 096°27'24 2.9
2018-Feb-19 03:35N 28°12' W 096°50'1 3.3
2018-Feb-19 03:26N 28°12' W 096°50'2 3.6
2018-Feb-19 02:54N 28°10' W 096°52'1 3.3
2018-Feb-19 02:30N 28°10' W 096°53'2 3.4
2018-Feb-19 02:00N 28°08' W 096°54'2 3.6
2018-Feb-19 01:30N 28°07' W 096°56'3 5.6
2018-Feb-19 00:59N 28°05' W 096°58'3 5.9
2018-Feb-19 00:30N 28°02' W 096°60'29 0.8
2018-Feb-17 14:19N 27°49' W 097°28'2 0.1
2018-Feb-16 03:02N 27°49' W 097°26'0 0.0
2018-Feb-16 02:49N 27°49' W 097°26'0 0.0
2018-Feb-16 00:40N 27°49' W 097°26'0 0.0
2018-Feb-15 23:36N 27°49' W 097°26'0 0.0
2018-Feb-15 23:27N 27°49' W 097°26'21 3.0
2018-Feb-15 16:35N 27°52' W 097°03'0 2.2
2018-Feb-15 16:29N 27°52' W 097°03'0 0.0
2018-Feb-15 15:52N 27°52' W 097°03'0 0.0
2018-Feb-15 15:26N 27°52' W 097°03'0 0.0
2018-Feb-15 14:57N 27°52' W 097°03'0 0.0
2018-Feb-15 14:30N 27°52' W 097°03'0 0.0
2018-Feb-15 13:57N 27°52' W 097°03'0 0.0
2018-Feb-15 12:56N 27°52' W 097°03'0 0.0
2018-Feb-15 07:09N 27°52' W 097°03'0 0.0
2018-Feb-15 06:05N 27°52' W 097°03'0 0.0
2018-Feb-15 05:39N 27°52' W 097°03'0 0.0
2018-Feb-15 05:30N 27°52' W 097°03'0 0.0
2018-Feb-15 04:57N 27°52' W 097°03'0 0.0
2018-Feb-15 04:29N 27°52' W 097°03'0 0.0
2018-Feb-15 03:57N 27°52' W 097°03'0 0.0
2018-Feb-15 03:30N 27°52' W 097°03'0 0.0
2018-Feb-15 02:57N 27°52' W 097°03'0 0.0
2018-Feb-15 02:29N 27°52' W 097°03'0 0.0
2018-Feb-15 02:00N 27°52' W 097°03'0 0.0
2018-Feb-15 01:29N 27°52' W 097°03'0 0.0
2018-Feb-15 01:00N 27°52' W 097°03'0 0.0
2018-Feb-15 00:29N 27°52' W 097°03'0 0.0
2018-Feb-14 23:59N 27°52' W 097°03'0 0.0
2018-Feb-14 23:30N 27°52' W 097°03'0 0.0
2018-Feb-14 22:59N 27°52' W 097°03'0 0.0
2018-Feb-14 22:30N 27°52' W 097°03'1 1.8
2018-Feb-14 21:59N 27°51' W 097°03'1 1.1
2018-Feb-14 21:30N 27°51' W 097°04'0 0.0
2018-Feb-14 20:59N 27°51' W 097°04'0 0.0
2018-Feb-14 20:30N 27°51' W 097°04'0 0.1
2018-Feb-14 19:59N 27°51' W 097°04'1 2.8
2018-Feb-14 19:28N 27°52' W 097°03'0 0.0
2018-Feb-14 18:59N 27°52' W 097°03'0 0.0
2018-Feb-14 18:27N 27°52' W 097°03'0 0.0
2018-Feb-14 17:58N 27°52' W 097°03'0 0.0
2018-Feb-14 17:30N 27°52' W 097°03'0 0.0
2018-Feb-14 16:59N 27°52' W 097°03'0 0.0
2018-Feb-14 16:30N 27°52' W 097°03'0 0.0
2018-Feb-14 15:59N 27°52' W 097°03'0 0.0
2018-Feb-14 15:28N 27°52' W 097°03'0 0.0
2018-Feb-14 14:59N 27°52' W 097°03'0 0.0
2018-Feb-14 14:29N 27°52' W 097°03'0 0.0
2018-Feb-14 14:00N 27°52' W 097°03'0 0.9
2018-Feb-14 13:30N 27°53' W 097°03'2 3.2
2018-Feb-14 12:58N 27°51' W 097°04'1 2.8
2018-Feb-14 12:29N 27°52' W 097°03'0 0.0
2018-Feb-14 12:00N 27°52' W 097°03'0 0.0
2018-Feb-14 11:30N 27°52' W 097°03'0 0.0
2018-Feb-14 10:59N 27°52' W 097°03'0 0.0
2018-Feb-14 10:27N 27°52' W 097°03'0 0.0
2018-Feb-14 09:58N 27°52' W 097°03'0 0.0
2018-Feb-14 09:27N 27°52' W 097°03'0 0.0
2018-Feb-14 08:59N 27°52' W 097°03'0 0.0
2018-Feb-14 08:27N 27°52' W 097°03'0 0.0
2018-Feb-14 08:00N 27°52' W 097°03'0 0.0
2018-Feb-14 07:29N 27°52' W 097°03'0 0.0
2018-Feb-14 06:59N 27°52' W 097°03'0 0.0
2018-Feb-14 06:30N 27°52' W 097°03'0 0.0
2018-Feb-14 05:59N 27°52' W 097°03'0 0.0
2018-Feb-14 05:29N 27°52' W 097°03'0 0.0
2018-Feb-14 04:59N 27°52' W 097°03'0 0.0
2018-Feb-14 04:30N 27°52' W 097°03'0 0.0
2018-Feb-14 03:59N 27°52' W 097°03'0 0.0
2018-Feb-14 03:29N 27°52' W 097°03'0 0.0
2018-Feb-14 02:58N 27°52' W 097°03'0 0.0
2018-Feb-14 02:29N 27°52' W 097°03'0 0.0
2018-Feb-14 01:57N 27°52' W 097°03'0 0.0
2018-Feb-14 01:29N 27°52' W 097°03'0 0.0
2018-Feb-14 00:57N 27°52' W 097°03'0 0.0
2018-Feb-14 00:30N 27°52' W 097°03'0 0.0
2018-Feb-14 00:00N 27°52' W 097°03'0 0.0
2018-Feb-13 23:28N 27°52' W 097°03'0 0.0
2018-Feb-13 22:59N 27°52' W 097°03'0 0.0
2018-Feb-13 22:29N 27°52' W 097°03'0 0.0
2018-Feb-13 21:59N 27°52' W 097°03'0 0.0
2018-Feb-13 21:29N 27°52' W 097°03'0 0.0
2018-Feb-13 21:00N 27°52' W 097°03'0 0.0
2018-Feb-13 20:30N 27°52' W 097°03'0 0.0
2018-Feb-13 20:00N 27°52' W 097°03'0 0.0
2018-Feb-13 19:29N 27°52' W 097°03'0 0.0
2018-Feb-13 18:59N 27°52' W 097°03'0 0.0
2018-Feb-13 18:29N 27°52' W 097°03'0 0.0
2018-Feb-13 17:59N 27°52' W 097°03'0 0.0
2018-Feb-13 17:29N 27°52' W 097°03'0 0.0
2018-Feb-13 17:00N 27°52' W 097°03'0 0.0
2018-Feb-13 16:30N 27°52' W 097°03'0 0.0
2018-Feb-13 15:59N 27°52' W 097°03'0 0.0
2018-Feb-13 15:28N 27°52' W 097°03'0 0.0
2018-Feb-13 14:59N 27°52' W 097°03'0 0.0
2018-Feb-13 14:29N 27°52' W 097°03'0 0.0
2018-Feb-13 13:59N 27°52' W 097°03'0 0.0
2018-Feb-13 13:30N 27°52' W 097°03'0 0.0
2018-Feb-13 13:00N 27°52' W 097°03'0 0.0
2018-Feb-13 12:29N 27°52' W 097°03'0 0.0
2018-Feb-13 11:59N 27°52' W 097°03'0 0.0
2018-Feb-13 11:26N 27°52' W 097°03'0 0.0
2018-Feb-13 11:00N 27°52' W 097°03'0 0.0
2018-Feb-13 10:29N 27°52' W 097°03'0 0.0
2018-Feb-13 09:59N 27°52' W 097°03'0 0.0
2018-Feb-13 09:30N 27°52' W 097°03'0 0.0
2018-Feb-13 09:00N 27°52' W 097°03'0 0.0
2018-Feb-13 08:29N 27°52' W 097°03'0 0.0
2018-Feb-13 07:59N 27°52' W 097°03'0 0.0
2018-Feb-13 07:30N 27°52' W 097°03'0 0.0
2018-Feb-13 07:00N 27°52' W 097°03'0 0.0
2018-Feb-13 06:29N 27°52' W 097°03'0 0.0
2018-Feb-13 05:59N 27°52' W 097°03'0 0.0
2018-Feb-13 05:30N 27°52' W 097°03'0 0.0
2018-Feb-13 04:59N 27°52' W 097°03'0 0.0
2018-Feb-13 04:29N 27°52' W 097°03'0 0.0
2018-Feb-13 04:00N 27°52' W 097°03'0 0.0
2018-Feb-13 03:30N 27°52' W 097°03'0 0.0
2018-Feb-13 02:59N 27°52' W 097°03'0 0.0
2018-Feb-13 02:29N 27°52' W 097°03'0 0.0
2018-Feb-13 01:58N 27°52' W 097°03'0 0.0
2018-Feb-13 01:30N 27°52' W 097°03'0 0.0
2018-Feb-13 00:59N 27°52' W 097°03'0 0.0
2018-Feb-13 00:30N 27°52' W 097°03'0 0.0
2018-Feb-12 23:57N 27°52' W 097°03'0 0.0
2018-Feb-12 23:26N 27°52' W 097°03'0 0.0
2018-Feb-12 22:58N 27°52' W 097°03'0 0.0
2018-Feb-12 22:29N 27°52' W 097°03'0 0.0
2018-Feb-12 21:59N 27°52' W 097°03'0 0.0
2018-Feb-12 21:30N 27°52' W 097°03'0 0.0
2018-Feb-12 21:00N 27°52' W 097°03'0 0.0
2018-Feb-12 20:27N 27°52' W 097°03'0 0.0
2018-Feb-12 19:56N 27°52' W 097°03'0 0.0
2018-Feb-12 19:30N 27°52' W 097°03'0 0.0
2018-Feb-12 18:59N 27°52' W 097°03'0 0.0
2018-Feb-12 18:27N 27°52' W 097°03'0 0.0
2018-Feb-12 18:00N 27°52' W 097°03'0 0.0
2018-Feb-12 17:30N 27°52' W 097°03'0 0.0
2018-Feb-12 16:59N 27°52' W 097°03'0 0.0
2018-Feb-12 16:29N 27°52' W 097°03'0 0.0
2018-Feb-12 15:59N 27°52' W 097°03'0 0.0
2018-Feb-12 15:16N 27°52' W 097°03'0 0.0
2018-Feb-12 15:00N 27°52' W 097°03'0 0.0
2018-Feb-12 14:30N 27°52' W 097°03'  

Dump ship's entire track history